createdAt,value
2022-12-24T02:13:55.530Z,28.38
2022-12-24T02:17:08.542Z,27.53
2022-12-24T02:20:18.800Z,27.63
2022-12-24T02:23:53.191Z,29.30
2022-12-24T02:27:16.983Z,29.42
2022-12-24T02:30:21.223Z,28.75
2022-12-24T02:33:32.800Z,28.73
2022-12-24T02:36:45.920Z,28.87
2022-12-24T02:40:01.122Z,28.98
2022-12-24T02:43:12.724Z,30.02
2022-12-24T02:46:27.644Z,29.48
2022-12-24T02:49:30.744Z,28.73
2022-12-24T02:52:40.211Z,29.37
2022-12-24T02:55:57.050Z,30.67
2022-12-24T02:59:15.207Z,29.12
2022-12-24T03:02:36.849Z,30.10
2022-12-24T03:05:43.623Z,27.67
2022-12-24T03:09:06.313Z,26.60
2022-12-24T03:12:28.506Z,28.02
2022-12-24T03:15:33.015Z,27.50
2022-12-24T03:18:39.493Z,27.67
2022-12-24T03:21:43.411Z,29.37
2022-12-24T03:24:46.470Z,26.53
2022-12-24T03:27:49.629Z,28.55
2022-12-24T03:30:52.817Z,28.40
2022-12-24T03:33:56.402Z,27.45
2022-12-24T03:36:59.660Z,28.50
2022-12-24T03:40:07.172Z,27.53
2022-12-24T03:43:12.845Z,27.83
2022-12-24T03:46:16.211Z,27.15
2022-12-24T03:49:19.553Z,27.45
2022-12-24T03:52:22.830Z,27.67
2022-12-24T03:55:25.600Z,27.70
2022-12-24T03:58:28.744Z,27.02
2022-12-24T04:01:31.606Z,25.77
2022-12-24T04:04:37.434Z,25.95
2022-12-24T04:07:39.837Z,26.93
2022-12-24T04:10:45.816Z,26.93
2022-12-24T04:13:48.386Z,25.88
2022-12-24T04:16:51.394Z,25.17
2022-12-24T04:19:54.025Z,25.83
2022-12-24T04:22:57.304Z,24.07
2022-12-24T04:26:01.417Z,24.63
2022-12-24T04:29:04.522Z,25.60
2022-12-24T04:32:07.095Z,23.58
2022-12-24T04:35:11.897Z,25.48
2022-12-24T04:38:14.376Z,24.10
2022-12-24T04:41:24.791Z,25.12
2022-12-24T04:44:27.972Z,23.73
2022-12-24T04:47:38.015Z,24.60
2022-12-24T04:50:43.836Z,25.20
2022-12-24T04:53:47.013Z,24.27
2022-12-24T04:56:49.765Z,24.43
2022-12-24T04:59:53.131Z,23.67
2022-12-24T05:02:56.399Z,24.20
2022-12-24T05:06:05.619Z,22.37
2022-12-24T05:09:10.568Z,23.47
2022-12-24T05:12:13.954Z,23.10
2022-12-24T05:15:16.678Z,24.42
2022-12-24T05:18:20.331Z,23.77
2022-12-24T05:21:24.845Z,22.85
2022-12-24T05:24:47.154Z,22.80
2022-12-24T05:27:51.542Z,22.97
2022-12-24T05:30:56.844Z,22.40
2022-12-24T05:34:01.621Z,24.20
2022-12-24T05:37:06.317Z,22.60
2022-12-24T05:40:10.468Z,23.10
2022-12-24T05:43:14.962Z,23.57
2022-12-24T05:46:21.681Z,24.10
2022-12-24T05:49:24.845Z,25.55
2022-12-24T05:52:27.820Z,24.08
2022-12-24T05:55:33.604Z,24.43
2022-12-24T05:58:37.479Z,25.03
2022-12-24T06:01:47.612Z,26.02
2022-12-24T06:04:50.633Z,25.65
2022-12-24T06:07:54.659Z,25.33
2022-12-24T06:11:05.527Z,26.33
2022-12-24T06:14:08.898Z,26.50
2022-12-24T06:17:13.714Z,27.83
2022-12-24T06:20:22.744Z,27.30
2022-12-24T06:23:27.359Z,27.48
2022-12-24T06:26:37.441Z,25.17
2022-12-24T06:29:49.045Z,24.27
2022-12-24T06:32:52.269Z,25.45
2022-12-24T06:35:57.575Z,23.60
2022-12-24T06:39:01.697Z,22.80
2022-12-24T06:42:09.769Z,21.97
2022-12-24T06:45:12.741Z,22.97
2022-12-24T06:48:16.228Z,24.30
2022-12-24T06:51:26.507Z,23.17
2022-12-24T06:54:31.516Z,23.62
2022-12-24T06:57:39.938Z,23.33
2022-12-24T07:00:49.095Z,22.90
2022-12-24T07:03:58.269Z,22.10
2022-12-24T07:07:09.423Z,22.08
2022-12-24T07:10:20.780Z,22.85
2022-12-24T07:13:34.533Z,24.63
2022-12-24T07:16:46.213Z,30.57
2022-12-24T07:20:01.473Z,28.52
2022-12-24T07:23:21.580Z,25.70
2022-12-24T07:26:30.801Z,26.42
2022-12-24T07:29:35.477Z,29.30
2022-12-24T07:32:43.520Z,31.27
2022-12-24T07:35:53.952Z,32.80
2022-12-24T07:39:05.857Z,31.80
2022-12-24T07:42:14.731Z,31.67
2022-12-24T07:45:25.720Z,50.53
2022-12-24T07:48:47.975Z,46.13
2022-12-24T07:51:51.975Z,44.35
2022-12-24T07:55:11.402Z,47.08
2022-12-24T07:58:23.539Z,39.03
2022-12-24T08:01:30.671Z,36.43
2022-12-24T08:04:40.176Z,33.53
2022-12-24T08:08:04.541Z,32.13
2022-12-24T08:11:13.946Z,35.10
2022-12-24T08:14:24.447Z,34.20
2022-12-24T08:17:35.596Z,32.97
2022-12-24T08:20:49.925Z,34.40
2022-12-24T08:24:06.654Z,29.90
2022-12-24T08:27:14.750Z,32.17
2022-12-24T08:30:22.711Z,29.33
2022-12-24T08:33:27.530Z,31.83
2022-12-24T08:36:32.627Z,32.20
2022-12-24T08:39:50.510Z,26.58
2022-12-24T08:42:57.649Z,26.65
2022-12-24T08:46:05.528Z,26.02
2022-12-24T08:49:18.540Z,22.57
2022-12-24T08:52:28.452Z,21.97
2022-12-24T08:55:36.663Z,19.77
2022-12-24T08:58:44.677Z,21.80
2022-12-24T09:01:53.871Z,20.80
2022-12-24T09:05:05.770Z,19.17
2022-12-24T09:08:09.613Z,15.30
2022-12-24T09:11:22.525Z,14.73
2022-12-24T09:14:25.866Z,15.45
2022-12-24T09:17:29.997Z,14.13
2022-12-24T09:20:42.724Z,13.23
2022-12-24T09:23:49.999Z,12.63
2022-12-24T09:27:00.042Z,13.62
2022-12-24T09:30:07.680Z,12.75
2022-12-24T09:33:26.621Z,13.20
2022-12-24T09:36:52.016Z,11.73
2022-12-24T09:39:57.702Z,11.60
2022-12-24T09:43:27.198Z,11.73
2022-12-24T09:46:40.473Z,11.32
2022-12-24T09:49:49.951Z,10.32
2022-12-24T09:53:01.479Z,8.47
2022-12-24T09:56:39.096Z,8.50
2022-12-24T09:59:51.988Z,7.70
2022-12-24T10:02:58.101Z,6.87
2022-12-24T10:06:39.523Z,8.00
2022-12-24T10:09:59.374Z,6.30
2022-12-24T10:13:41.611Z,4.87
2022-12-24T10:16:45.595Z,4.80
2022-12-24T10:20:15.661Z,4.45
2022-12-24T10:23:36.853Z,3.83
2022-12-24T10:26:59.496Z,3.60
2022-12-24T10:30:19.520Z,4.20
2022-12-24T10:33:36.752Z,3.70
2022-12-24T10:36:46.711Z,3.80
2022-12-24T10:39:54.486Z,3.37
2022-12-24T10:43:04.386Z,3.53
2022-12-24T10:46:38.222Z,3.90
2022-12-24T10:49:55.521Z,3.92
2022-12-24T10:53:09.506Z,4.43
2022-12-24T10:56:21.512Z,4.40
2022-12-24T10:59:53.730Z,4.47
2022-12-24T11:03:12.533Z,4.57
2022-12-24T11:06:22.577Z,3.87
2022-12-24T11:09:32.618Z,3.58
2022-12-24T11:13:05.703Z,3.25
2022-12-24T11:16:37.604Z,2.50
2022-12-24T11:19:41.251Z,2.50
2022-12-24T11:22:56.406Z,2.20
2022-12-24T11:26:02.162Z,2.08
2022-12-24T11:29:14.780Z,2.30
2022-12-24T11:32:23.917Z,2.00
2022-12-24T11:35:37.724Z,2.03
2022-12-24T11:38:59.206Z,2.05
2022-12-24T11:42:09.473Z,1.95
2022-12-24T11:45:29.776Z,1.70
2022-12-24T11:48:35.853Z,2.00
2022-12-24T11:52:14.343Z,1.87
2022-12-24T11:55:36.390Z,2.40
2022-12-24T11:58:56.368Z,2.40
2022-12-24T12:02:29.263Z,3.08
2022-12-24T12:05:35.759Z,3.43
2022-12-24T12:08:42.586Z,2.77
2022-12-24T12:11:51.468Z,2.72
2022-12-24T12:15:02.887Z,2.90
2022-12-24T12:18:22.561Z,2.50
2022-12-24T12:21:42.912Z,2.50
2022-12-24T12:24:56.264Z,2.87
2022-12-24T12:28:03.919Z,3.08
2022-12-24T12:31:18.956Z,2.67
2022-12-24T12:34:40.400Z,3.28
2022-12-24T12:38:04.472Z,2.90
2022-12-24T12:41:25.249Z,2.80
2022-12-24T12:44:49.711Z,2.28
2022-12-24T12:48:18.309Z,2.47
2022-12-24T12:51:38.503Z,2.60
2022-12-24T12:55:07.571Z,2.40
2022-12-24T12:58:23.460Z,2.20
2022-12-24T13:01:36.602Z,1.98
2022-12-24T13:05:16.479Z,2.10
2022-12-24T13:08:48.764Z,1.80
2022-12-24T13:12:04.746Z,2.00
2022-12-24T13:15:22.524Z,2.00
2022-12-24T13:19:10.611Z,1.98
2022-12-24T13:22:25.939Z,2.00
2022-12-24T13:25:37.156Z,2.15
2022-12-24T13:28:54.374Z,2.23
2022-12-24T13:32:22.429Z,2.30
2022-12-24T13:35:39.022Z,1.83
2022-12-24T13:38:57.998Z,2.90
2022-12-24T13:42:07.840Z,2.40
2022-12-24T13:45:35.368Z,2.90
2022-12-24T13:48:50.933Z,2.37
2022-12-24T13:52:30.640Z,2.40
2022-12-24T13:55:50.997Z,2.30
2022-12-24T13:59:12.852Z,2.78
2022-12-24T14:02:28.624Z,2.40
2022-12-24T14:05:48.415Z,2.50
2022-12-24T14:09:31.451Z,2.97
2022-12-24T14:12:49.535Z,2.40
2022-12-24T14:15:56.536Z,3.10
2022-12-24T14:19:14.670Z,2.60
2022-12-24T14:22:32.416Z,3.40
2022-12-24T14:25:42.670Z,3.37
2022-12-24T14:29:25.160Z,3.08
2022-12-24T14:32:40.668Z,3.60
2022-12-24T14:35:48.480Z,4.13
2022-12-24T14:39:07.364Z,4.20
2022-12-24T14:42:45.690Z,3.70
2022-12-24T14:46:17.703Z,3.50
2022-12-24T14:49:41.479Z,3.97
2022-12-24T14:53:22.525Z,3.70
2022-12-24T14:56:33.396Z,3.80
2022-12-24T14:59:47.107Z,3.80
2022-12-24T15:02:56.986Z,8.07
2022-12-24T15:06:06.461Z,7.40
2022-12-24T15:09:19.668Z,6.50
2022-12-24T15:12:25.750Z,9.83
2022-12-24T15:15:37.760Z,10.38
2022-12-24T15:18:54.533Z,10.95
2022-12-24T15:22:29.465Z,9.07
2022-12-24T15:25:33.656Z,9.33
2022-12-24T15:28:45.761Z,9.63
2022-12-24T15:31:55.790Z,10.93
2022-12-24T15:35:02.512Z,10.98
2022-12-24T15:38:25.715Z,12.23
2022-12-24T15:42:04.430Z,15.07
2022-12-24T15:45:27.048Z,12.30
2022-12-24T15:48:38.472Z,13.98
2022-12-24T15:51:42.845Z,13.93
2022-12-24T15:55:34.970Z,15.73
2022-12-24T15:58:50.598Z,26.73
2022-12-24T16:01:53.850Z,21.43
2022-12-24T16:05:29.707Z,24.58
2022-12-24T16:08:42.408Z,22.70
2022-12-24T16:11:49.265Z,23.02
2022-12-24T16:14:59.184Z,24.00
2022-12-24T16:18:02.485Z,23.13
2022-12-24T16:21:39.524Z,22.73
2022-12-24T16:24:53.315Z,22.98
2022-12-24T16:28:03.643Z,21.55
2022-12-24T16:31:35.004Z,23.40
2022-12-24T16:34:40.480Z,24.80
2022-12-24T16:37:47.461Z,24.70
2022-12-24T16:41:01.522Z,22.17
2022-12-24T16:44:06.090Z,23.02
2022-12-24T16:47:24.576Z,22.27
2022-12-24T16:50:36.491Z,19.60
2022-12-24T16:53:44.442Z,21.48
2022-12-24T16:56:58.436Z,20.75
2022-12-24T17:00:20.661Z,20.65
2022-12-24T17:03:42.641Z,21.07
2022-12-24T17:06:56.569Z,19.13
2022-12-24T17:10:07.434Z,16.45
2022-12-24T17:13:11.045Z,16.80
2022-12-24T17:16:17.538Z,21.27
2022-12-24T17:19:29.651Z,15.83
2022-12-24T17:22:46.306Z,15.10
2022-12-24T17:25:59.526Z,13.93
2022-12-24T17:29:11.678Z,16.92
2022-12-24T17:32:21.049Z,25.65
2022-12-24T17:35:30.420Z,18.10
2022-12-24T17:38:42.466Z,13.10
2022-12-24T17:41:54.533Z,12.07
2022-12-24T17:44:58.852Z,11.15
2022-12-24T17:48:04.467Z,12.07
2022-12-24T17:51:15.745Z,11.80
2022-12-24T17:54:24.506Z,11.43
2022-12-24T17:57:38.716Z,11.07
2022-12-24T18:00:44.455Z,10.77
2022-12-24T18:04:00.549Z,11.38
2022-12-24T18:07:10.403Z,10.93
2022-12-24T18:10:23.995Z,11.33
2022-12-24T18:13:32.442Z,11.82
2022-12-24T18:16:46.502Z,15.95
2022-12-24T18:19:51.276Z,27.40
2022-12-24T18:22:59.478Z,25.83
2022-12-24T18:26:14.647Z,24.50
2022-12-24T18:29:29.334Z,20.83
2022-12-24T18:32:42.696Z,18.58
2022-12-24T18:35:48.582Z,17.25
2022-12-24T18:38:52.252Z,18.10
2022-12-24T18:41:56.693Z,19.10
2022-12-24T18:45:08.295Z,25.83
2022-12-24T18:48:26.367Z,32.95
2022-12-24T18:51:40.855Z,28.90
2022-12-24T18:54:51.328Z,24.80
2022-12-24T18:57:55.387Z,26.10
2022-12-24T19:01:19.458Z,24.15
2022-12-24T19:04:23.734Z,22.83
2022-12-24T19:07:38.611Z,21.77
2022-12-24T19:10:53.593Z,23.33
2022-12-24T19:13:58.362Z,22.50
2022-12-24T19:17:03.488Z,24.10
2022-12-24T19:20:10.769Z,24.50
2022-12-24T19:23:28.907Z,25.12
2022-12-24T19:26:41.282Z,25.27
2022-12-24T19:30:04.319Z,24.27
2022-12-24T19:33:16.588Z,24.12
2022-12-24T19:36:46.297Z,29.25
2022-12-24T19:39:54.400Z,29.95
2022-12-24T19:43:10.845Z,28.60
2022-12-24T19:46:34.560Z,28.77
2022-12-24T19:49:41.249Z,30.50
2022-12-24T19:52:59.286Z,28.58
2022-12-24T19:56:12.326Z,30.83
2022-12-24T19:59:25.628Z,30.27
2022-12-24T20:02:32.447Z,28.70
2022-12-24T20:05:47.823Z,26.20
2022-12-24T20:08:57.293Z,27.45
2022-12-24T20:12:06.380Z,26.25
2022-12-24T20:15:12.551Z,24.17
2022-12-24T20:18:24.299Z,24.12
2022-12-24T20:21:39.377Z,22.40
2022-12-24T20:25:00.385Z,23.87
2022-12-24T20:28:13.276Z,24.00
2022-12-24T20:31:27.849Z,29.40
2022-12-24T20:34:37.396Z,27.55
2022-12-24T20:37:46.151Z,25.95
2022-12-24T20:40:57.206Z,27.35
2022-12-24T20:44:05.517Z,26.70
2022-12-24T20:47:21.746Z,28.20
2022-12-24T20:50:34.468Z,28.87
2022-12-24T20:53:49.017Z,33.65
2022-12-24T20:57:00.347Z,31.37
2022-12-24T21:00:05.814Z,29.75
2022-12-24T21:03:24.384Z,28.73
2022-12-24T21:06:32.614Z,30.60
2022-12-24T21:09:38.018Z,23.67
2022-12-24T21:12:52.413Z,25.80
2022-12-24T21:15:56.435Z,27.15
2022-12-24T21:19:15.206Z,20.20
2022-12-24T21:22:23.646Z,21.70
2022-12-24T21:25:34.275Z,20.02
2022-12-24T21:28:50.706Z,19.10
2022-12-24T21:31:55.748Z,17.55
2022-12-24T21:35:00.140Z,17.33
2022-12-24T21:38:03.519Z,16.43
2022-12-24T21:41:13.811Z,19.58
2022-12-24T21:44:26.527Z,17.85
2022-12-24T21:47:38.310Z,18.45
2022-12-24T21:50:57.228Z,23.83
2022-12-24T21:54:21.495Z,20.45
2022-12-24T21:57:53.304Z,23.90
2022-12-24T22:00:57.088Z,25.10
2022-12-24T22:04:02.529Z,24.65
2022-12-24T22:07:27.381Z,25.43
2022-12-24T22:10:50.334Z,26.70
2022-12-24T22:13:54.630Z,27.52
2022-12-24T22:16:58.233Z,25.90
2022-12-24T22:20:01.803Z,24.30
2022-12-24T22:23:09.781Z,21.77
2022-12-24T22:26:16.516Z,21.63
2022-12-24T22:29:19.673Z,20.17
2022-12-24T22:32:23.379Z,20.75
2022-12-24T22:35:29.367Z,19.62
2022-12-24T22:38:38.870Z,18.57
2022-12-24T22:41:45.995Z,17.47
2022-12-24T22:44:51.590Z,17.67
2022-12-24T22:47:56.206Z,16.33
2022-12-24T22:51:02.374Z,16.25
2022-12-24T22:54:07.475Z,14.47
2022-12-24T22:57:11.587Z,14.70
2022-12-24T23:00:41.393Z,14.63
2022-12-24T23:03:44.563Z,12.93
2022-12-24T23:06:48.625Z,14.55
2022-12-24T23:09:51.420Z,14.43
2022-12-24T23:13:17.591Z,13.57
2022-12-24T23:16:21.419Z,13.13
2022-12-24T23:19:28.457Z,13.90
2022-12-24T23:22:35.605Z,14.85
2022-12-24T23:25:41.113Z,14.83
2022-12-24T23:28:46.697Z,15.20
2022-12-24T23:31:50.412Z,15.50
2022-12-24T23:34:53.714Z,14.30
2022-12-24T23:37:58.157Z,14.18
2022-12-24T23:41:04.775Z,12.40
2022-12-24T23:44:09.520Z,12.40
2022-12-24T23:47:14.637Z,12.10
2022-12-24T23:50:17.909Z,11.07
2022-12-24T23:53:21.691Z,11.00
2022-12-24T23:56:26.385Z,9.20
2022-12-24T23:59:29.312Z,9.17
